createdAt,value
2018-12-29T00:00:15.763Z,100442.11
2018-12-29T00:02:43.997Z,100442.10
2018-12-29T00:05:12.593Z,100445.87
2018-12-29T00:07:40.862Z,100450.36
2018-12-29T00:10:08.817Z,100442.09
2018-12-29T00:12:37.227Z,100445.45
2018-12-29T00:15:05.997Z,100449.95
2018-12-29T00:17:34.274Z,100444.84
2018-12-29T00:20:03.530Z,100453.90
2018-12-29T00:22:32.639Z,100455.05
2018-12-29T00:25:00.699Z,100449.77
2018-12-29T00:27:29.486Z,100453.50
2018-12-29T00:29:57.483Z,100453.51
2018-12-29T00:32:25.506Z,100457.64
2018-12-29T00:34:54.378Z,100452.93
2018-12-29T00:37:22.515Z,100465.89
2018-12-29T00:39:50.638Z,100465.09
2018-12-29T00:42:19.638Z,100411.61
2018-12-29T00:44:48.259Z,100465.73
2018-12-29T00:47:17.145Z,100468.48
2018-12-29T00:49:47.196Z,100465.16
2018-12-29T00:52:15.230Z,100467.30
2018-12-29T00:54:43.955Z,100452.77
2018-12-29T00:57:12.055Z,100451.17
2018-12-29T00:59:40.081Z,100431.98
2018-12-29T01:02:08.193Z,100448.83
2018-12-29T01:04:36.602Z,100441.75
2018-12-29T01:07:04.768Z,100443.13
2018-12-29T01:09:33.024Z,100415.27
2018-12-29T01:12:01.120Z,100434.48
2018-12-29T01:14:29.221Z,100441.95
2018-12-29T01:16:57.613Z,100445.90
2018-12-29T01:19:26.458Z,100439.42
2018-12-29T01:21:54.295Z,100427.88
2018-12-29T01:24:22.273Z,100447.88
2018-12-29T01:26:50.353Z,100441.80
2018-12-29T01:29:18.573Z,100430.79
2018-12-29T01:31:46.530Z,100427.06
2018-12-29T01:34:14.702Z,100430.79
2018-12-29T01:36:42.649Z,100441.22
2018-12-29T01:39:11.034Z,100432.34
2018-12-29T01:41:39.113Z,100391.00
2018-12-29T01:44:07.055Z,100292.61
2018-12-29T01:46:35.258Z,100418.80
2018-12-29T01:49:03.408Z,100344.11
2018-12-29T01:51:31.774Z,100420.59
2018-12-29T01:54:00.166Z,100409.04
2018-12-29T01:56:29.101Z,100424.33
2018-12-29T01:58:57.222Z,100416.86
2018-12-29T02:01:25.236Z,100425.31
2018-12-29T02:03:53.603Z,100418.44
2018-12-29T02:06:21.767Z,100412.92
2018-12-29T02:08:50.070Z,100413.14
2018-12-29T02:11:18.412Z,100409.59
2018-12-29T02:13:46.774Z,100410.57
2018-12-29T02:16:14.995Z,100407.64
2018-12-29T02:18:43.954Z,100408.44
2018-12-29T02:21:11.941Z,100409.20
2018-12-29T02:23:41.214Z,100391.58
2018-12-29T02:26:09.921Z,100411.55
2018-12-29T02:28:38.080Z,100409.02
2018-12-29T02:31:06.571Z,100408.44
2018-12-29T02:33:34.983Z,100412.56
2018-12-29T02:36:02.923Z,100406.66
2018-12-29T02:38:31.112Z,100409.61
2018-12-29T02:40:59.762Z,100413.34
2018-12-29T02:43:28.323Z,100412.76
2018-12-29T02:45:56.297Z,100409.43
2018-12-29T02:48:24.976Z,100403.92
2018-12-29T02:50:53.064Z,100409.03
2018-12-29T02:53:21.314Z,100405.09
2018-12-29T02:55:49.821Z,100401.97
2018-12-29T02:58:18.499Z,100407.48
2018-12-29T03:00:46.575Z,100399.59
2018-12-29T03:03:15.065Z,100392.92
2018-12-29T03:05:43.340Z,100386.44
2018-12-29T03:08:11.516Z,100386.03
2018-12-29T03:10:40.590Z,100383.08
2018-12-29T03:13:09.169Z,100379.17
2018-12-29T03:15:41.105Z,100376.80
2018-12-29T03:18:05.444Z,100371.30
2018-12-29T03:20:33.369Z,100369.32
2018-12-29T03:23:01.787Z,100372.06
2018-12-29T03:25:30.403Z,100371.30
2018-12-29T03:27:58.607Z,100370.09
2018-12-29T03:30:27.079Z,100379.15
2018-12-29T03:32:55.079Z,100384.03
2018-12-29T03:35:23.556Z,100336.01
2018-12-29T03:37:51.640Z,100375.59
2018-12-29T03:40:20.434Z,100381.49
2018-12-29T03:42:48.781Z,100385.41
2018-12-29T03:45:16.956Z,100376.16
2018-12-29T03:47:47.041Z,100376.37
2018-12-29T03:50:16.171Z,100374.20
2018-12-29T03:52:45.420Z,100372.66
2018-12-29T03:55:15.158Z,100371.86
2018-12-29T03:57:43.448Z,100366.16
2018-12-29T04:00:11.426Z,100370.09
2018-12-29T04:02:39.850Z,100342.48
2018-12-29T04:05:08.029Z,100321.81
2018-12-29T04:07:36.388Z,100367.17
2018-12-29T04:10:09.021Z,100372.67
2018-12-29T04:12:39.196Z,100355.41
2018-12-29T04:15:06.970Z,100368.90
2018-12-29T04:17:35.586Z,100374.66
2018-12-29T04:20:04.421Z,100362.01
2018-12-29T04:22:32.424Z,100370.27
2018-12-29T04:25:00.965Z,100364.56
2018-12-29T04:27:29.266Z,100369.08
2018-12-29T04:29:57.257Z,100369.26
2018-12-29T04:32:25.467Z,100366.33
2018-12-29T04:34:54.243Z,100370.65
2018-12-29T04:37:22.630Z,100372.61
2018-12-29T04:39:51.110Z,100376.97
2018-12-29T04:42:19.776Z,100374.05
2018-12-29T04:44:47.949Z,100374.05
2018-12-29T04:47:16.431Z,100378.36
2018-12-29T04:49:44.409Z,100357.59
2018-12-29T04:52:12.413Z,100391.55
2018-12-29T04:54:41.430Z,100384.87
2018-12-29T04:57:09.850Z,100389.59
2018-12-29T04:59:37.971Z,100378.80
2018-12-29T05:02:07.014Z,100365.31
2018-12-29T05:04:36.086Z,100408.25
2018-12-29T05:07:04.177Z,100410.60
2018-12-29T05:09:32.762Z,100409.22
2018-12-29T05:12:01.027Z,100411.20
2018-12-29T05:14:30.044Z,100408.85
2018-12-29T05:17:04.934Z,100405.70
2018-12-29T05:19:33.014Z,100393.09
2018-12-29T05:22:01.206Z,100402.14
2018-12-29T05:24:29.779Z,100405.87
2018-12-29T05:26:58.233Z,100405.08
2018-12-29T05:29:26.318Z,100410.18
2018-12-29T05:31:56.274Z,100414.93
2018-12-29T05:34:25.324Z,100408.80
2018-12-29T05:36:53.315Z,100413.55
2018-12-29T05:39:21.842Z,100135.50
2018-12-29T05:41:50.477Z,100424.56
2018-12-29T05:44:18.705Z,100153.52
2018-12-29T05:46:47.445Z,100369.30
2018-12-29T05:49:15.212Z,100398.28
2018-12-29T05:51:43.220Z,100412.37
2018-12-29T05:54:11.725Z,100414.16
2018-12-29T05:56:39.930Z,100414.95
2018-12-29T05:59:08.231Z,100417.69
2018-12-29T06:01:36.765Z,100416.51
2018-12-29T06:04:05.045Z,100415.73
2018-12-29T06:06:33.324Z,100417.88
2018-12-29T06:09:03.307Z,100421.60
2018-12-29T06:11:31.817Z,100427.33
2018-12-29T06:13:59.562Z,100410.70
2018-12-29T06:16:28.050Z,100427.14
2018-12-29T06:18:55.924Z,100435.01
2018-12-29T06:21:23.738Z,100434.61
2018-12-29T06:23:52.214Z,100430.88
2018-12-29T06:26:20.226Z,100432.66
2018-12-29T06:28:48.250Z,100441.89
2018-12-29T06:31:16.437Z,100436.38
2018-12-29T06:33:44.532Z,100424.98
2018-12-29T06:36:12.550Z,100423.39
2018-12-29T06:38:40.627Z,100368.70
2018-12-29T06:41:08.973Z,100429.28
2018-12-29T06:43:37.347Z,100376.95
2018-12-29T06:46:05.758Z,100444.23
2018-12-29T06:48:33.873Z,100437.55
2018-12-29T06:51:01.967Z,100441.67
2018-12-29T06:53:29.947Z,100440.30
2018-12-29T06:55:58.003Z,100391.86
2018-12-29T06:58:25.995Z,100446.78
2018-12-29T07:00:54.212Z,100435.41
2018-12-29T07:03:22.046Z,100443.05
2018-12-29T07:05:50.659Z,100442.86
2018-12-29T07:08:18.559Z,100439.49
2018-12-29T07:10:46.854Z,100435.98
2018-12-29T07:13:14.800Z,100438.34
2018-12-29T07:15:43.922Z,100250.13
2018-12-29T07:18:11.740Z,100363.44
2018-12-29T07:20:39.870Z,100444.02
2018-12-29T07:23:07.680Z,100444.02
2018-12-29T07:25:35.572Z,100473.55
2018-12-29T07:28:03.357Z,100444.02
2018-12-29T07:30:31.735Z,100452.73
2018-12-29T07:33:00.001Z,100449.91
2018-12-29T07:35:28.507Z,100452.66
2018-12-29T07:37:56.559Z,100455.99
2018-12-29T07:40:24.928Z,100461.48
2018-12-29T07:42:53.479Z,100445.77
2018-12-29T07:45:22.027Z,100453.63
2018-12-29T07:47:49.894Z,100452.83
2018-12-29T07:50:18.356Z,100452.42
2018-12-29T07:52:47.212Z,100417.53
2018-12-29T07:55:15.546Z,100458.32
2018-12-29T07:57:44.754Z,100429.09
2018-12-29T08:00:12.634Z,100452.99
2018-12-29T08:02:40.558Z,100456.94
2018-12-29T08:05:09.113Z,100460.09
2018-12-29T08:07:37.130Z,100455.95
2018-12-29T08:10:06.538Z,100456.75
2018-12-29T08:12:35.010Z,100459.50
2018-12-29T08:15:03.102Z,100457.51
2018-12-29T08:17:30.909Z,100465.76
2018-12-29T08:19:59.128Z,100449.91
2018-12-29T08:22:27.075Z,100460.89
2018-12-29T08:24:55.092Z,100463.17
2018-12-29T08:27:23.143Z,100454.74
2018-12-29T08:29:51.318Z,100489.31
2018-12-29T08:32:19.173Z,100463.73
2018-12-29T08:34:47.664Z,100454.70
2018-12-29T08:37:15.837Z,100458.98
2018-12-29T08:39:44.107Z,100462.31
2018-12-29T08:42:12.308Z,100457.99
2018-12-29T08:44:40.590Z,100453.25
2018-12-29T08:47:08.704Z,100435.03
2018-12-29T08:49:37.099Z,100453.05
2018-12-29T08:52:06.522Z,100434.20
2018-12-29T08:54:35.451Z,100393.03
2018-12-29T08:57:04.259Z,100356.57
2018-12-29T08:59:32.147Z,100426.13
2018-12-29T09:02:00.637Z,100447.11
2018-12-29T09:04:28.803Z,100438.47
2018-12-29T09:06:57.461Z,100461.98
2018-12-29T09:09:26.883Z,100460.44
2018-12-29T09:11:56.653Z,100461.42
2018-12-29T09:14:24.676Z,100453.73
2018-12-29T09:16:53.497Z,100463.36
2018-12-29T09:19:27.261Z,100468.65
2018-12-29T09:21:49.706Z,100283.63
2018-12-29T09:24:17.682Z,100471.77
2018-12-29T09:26:45.688Z,100480.83
2018-12-29T09:29:14.703Z,100471.53
2018-12-29T09:31:43.145Z,100470.94
2018-12-29T09:34:11.647Z,100533.90
2018-12-29T09:36:40.348Z,100481.69
2018-12-29T09:39:09.500Z,100482.86
2018-12-29T09:41:37.572Z,100481.64
2018-12-29T09:44:05.757Z,100445.15
2018-12-29T09:46:34.454Z,100479.41
2018-12-29T09:49:03.364Z,100471.72
2018-12-29T09:51:31.313Z,100474.11
2018-12-29T09:53:59.216Z,100476.81
2018-12-29T09:56:30.175Z,100447.98
2018-12-29T09:58:59.559Z,100458.44
2018-12-29T10:01:28.659Z,100465.87
2018-12-29T10:03:56.914Z,100461.13
2018-12-29T10:06:25.785Z,100465.02
2018-12-29T10:08:54.021Z,100454.93
2018-12-29T10:11:23.712Z,100489.67
2018-12-29T10:13:53.070Z,100443.80
2018-12-29T10:16:20.978Z,100441.57
2018-12-29T10:18:50.911Z,100442.74
2018-12-29T10:21:19.286Z,100441.52
2018-12-29T10:23:47.398Z,100476.98
2018-12-29T10:26:17.282Z,100423.59
2018-12-29T10:28:47.342Z,100461.31
2018-12-29T10:31:18.294Z,100397.08
2018-12-29T10:33:50.425Z,100415.63
2018-12-29T10:36:18.515Z,100407.70
2018-12-29T10:38:46.530Z,100413.00
2018-12-29T10:41:15.054Z,100401.94
2018-12-29T10:43:43.661Z,100392.28
2018-12-29T10:46:12.467Z,100386.52
2018-12-29T10:48:40.366Z,100384.21
2018-12-29T10:51:10.199Z,100329.36
2018-12-29T10:53:39.610Z,100384.75
2018-12-29T10:56:08.385Z,100374.30
2018-12-29T10:58:36.171Z,100381.44
2018-12-29T11:01:04.253Z,100399.75
2018-12-29T11:03:32.779Z,100388.15
2018-12-29T11:06:00.951Z,100391.16
2018-12-29T11:08:29.305Z,100382.63
2018-12-29T11:10:59.999Z,100372.94
2018-12-29T11:13:29.926Z,100363.00
2018-12-29T11:15:59.024Z,100346.78
2018-12-29T11:18:27.935Z,100349.80
2018-12-29T11:20:56.142Z,100352.92
2018-12-29T11:23:24.004Z,100358.00
2018-12-29T11:25:53.587Z,100357.55
2018-12-29T11:28:24.265Z,100346.81
2018-12-29T11:30:52.699Z,100350.94
2018-12-29T11:33:21.542Z,100336.72
2018-12-29T11:35:50.580Z,100329.23
2018-12-29T11:38:18.991Z,100343.09
2018-12-29T11:40:51.662Z,100320.59
2018-12-29T11:43:20.191Z,100320.08
2018-12-29T11:45:48.482Z,100309.05
2018-12-29T11:48:19.842Z,100288.44
2018-12-29T11:50:47.667Z,100306.97
2018-12-29T11:53:15.828Z,100282.06
2018-12-29T11:55:44.231Z,100278.13
2018-12-29T11:58:12.378Z,100276.88
2018-12-29T12:00:40.331Z,100280.38
2018-12-29T12:03:08.873Z,100276.38
2018-12-29T12:05:37.127Z,99993.63
2018-12-29T12:08:05.360Z,100092.93
2018-12-29T12:10:36.219Z,100220.45
2018-12-29T12:13:07.036Z,100178.94
2018-12-29T12:15:35.167Z,100259.67
2018-12-29T12:18:05.072Z,100268.36
2018-12-29T12:20:34.119Z,100268.19
2018-12-29T12:23:02.663Z,100263.45
2018-12-29T12:25:31.873Z,100254.20
2018-12-29T12:28:00.653Z,100257.56
2018-12-29T12:30:28.797Z,99989.80
2018-12-29T12:32:57.330Z,100239.31
2018-12-29T12:35:27.717Z,100238.72
2018-12-29T12:37:55.840Z,100207.03
2018-12-29T12:40:24.405Z,100223.80
2018-12-29T12:42:52.278Z,100181.75
2018-12-29T12:45:20.333Z,100218.45
2018-12-29T12:47:49.160Z,100219.77
2018-12-29T12:50:17.824Z,100137.62
2018-12-29T12:52:46.805Z,100215.40
2018-12-29T12:55:15.022Z,100099.56
2018-12-29T12:57:43.410Z,100206.91
2018-12-29T13:00:12.355Z,100199.83
2018-12-29T13:02:40.253Z,100204.34
2018-12-29T13:05:09.354Z,100204.34
2018-12-29T13:07:38.008Z,100207.11
2018-12-29T13:10:07.241Z,100208.32
2018-12-29T13:12:35.829Z,100209.70
2018-12-29T13:15:05.052Z,100208.38
2018-12-29T13:17:33.136Z,100203.70
2018-12-29T13:20:05.544Z,100206.69
2018-12-29T13:22:34.651Z,100200.17
2018-12-29T13:25:06.374Z,100207.68
2018-12-29T13:27:38.084Z,100040.22
2018-12-29T13:30:06.973Z,100203.44
2018-12-29T13:32:35.090Z,100239.73
2018-12-29T13:35:03.156Z,100209.42
2018-12-29T13:37:31.675Z,100199.19
2018-12-29T13:39:59.662Z,100192.73
2018-12-29T13:42:27.626Z,100150.16
2018-12-29T13:44:55.658Z,100205.66
2018-12-29T13:47:24.834Z,100212.17
2018-12-29T13:49:53.132Z,100216.17
2018-12-29T13:52:22.778Z,100222.94
2018-12-29T13:54:53.339Z,100238.59
2018-12-29T13:57:21.310Z,100265.48
2018-12-29T13:59:49.579Z,100239.83
2018-12-29T14:02:18.932Z,100234.69
2018-12-29T14:04:46.810Z,100223.08
2018-12-29T14:07:15.022Z,100210.67
2018-12-29T14:09:45.861Z,100205.02
2018-12-29T14:12:14.319Z,100198.95
2018-12-29T14:14:42.673Z,100198.64
2018-12-29T14:17:10.787Z,100216.64
2018-12-29T14:19:38.858Z,100229.12
2018-12-29T14:22:06.675Z,100242.36
2018-12-29T14:24:36.279Z,100256.78
2018-12-29T14:27:04.870Z,100246.02
2018-12-29T14:29:32.830Z,100250.37
2018-12-29T14:32:02.961Z,100272.30
2018-12-29T14:34:32.078Z,100242.81
2018-12-29T14:37:01.824Z,100224.13
2018-12-29T14:39:29.634Z,100211.41
2018-12-29T14:41:57.782Z,100205.73
2018-12-29T14:44:25.932Z,100214.66
2018-12-29T14:46:55.460Z,100219.64
2018-12-29T14:49:23.663Z,100215.15
2018-12-29T14:51:51.624Z,100217.75
2018-12-29T14:54:19.829Z,100198.59
2018-12-29T14:56:47.669Z,100210.36
2018-12-29T14:59:16.233Z,100205.67
2018-12-29T15:01:44.906Z,100207.30
2018-12-29T15:04:12.720Z,100194.93
2018-12-29T15:06:41.148Z,100196.35
2018-12-29T15:09:10.064Z,100099.32
2018-12-29T15:11:38.670Z,100205.67
2018-12-29T15:14:06.694Z,100211.23
2018-12-29T15:16:35.322Z,100057.31
2018-12-29T15:19:03.926Z,100184.27
2018-12-29T15:21:31.835Z,100174.23
2018-12-29T15:24:01.084Z,100163.39
2018-12-29T15:26:29.692Z,100156.78
2018-12-29T15:28:57.678Z,100143.39
2018-12-29T15:31:26.008Z,100147.34
2018-12-29T15:33:54.098Z,100151.12
2018-12-29T15:36:22.425Z,100155.82
2018-12-29T15:38:51.935Z,100157.59
2018-12-29T15:41:18.920Z,100146.71
2018-12-29T15:43:47.694Z,100039.53
2018-12-29T15:46:16.004Z,100143.69
2018-12-29T15:48:50.937Z,100143.61
2018-12-29T15:51:12.048Z,100136.30
2018-12-29T15:53:40.881Z,100119.14
2018-12-29T15:56:08.821Z,100125.22
2018-12-29T15:58:36.979Z,100124.44
2018-12-29T16:01:05.238Z,100123.58
2018-12-29T16:03:33.522Z,100108.74
2018-12-29T16:06:02.481Z,100099.03
2018-12-29T16:08:32.870Z,100104.11
2018-12-29T16:11:04.514Z,100093.64
2018-12-29T16:13:32.440Z,100086.32
2018-12-29T16:16:00.225Z,100083.14
2018-12-29T16:18:29.936Z,100074.86
2018-12-29T16:21:00.173Z,99942.50
2018-12-29T16:23:28.430Z,100029.05
2018-12-29T16:25:56.800Z,100041.86
2018-12-29T16:28:25.824Z,99909.82
2018-12-29T16:30:53.977Z,100023.36
2018-12-29T16:33:22.334Z,100001.09
2018-12-29T16:35:50.501Z,100043.52
2018-12-29T16:38:18.415Z,100003.88
2018-12-29T16:40:46.264Z,99991.85
2018-12-29T16:43:14.304Z,99985.91
2018-12-29T16:45:43.231Z,99781.88
2018-12-29T16:48:12.205Z,99981.28
2018-12-29T16:50:41.025Z,99968.27
2018-12-29T16:53:10.665Z,99949.57
2018-12-29T16:55:38.781Z,99926.70
2018-12-29T16:58:07.142Z,99951.49
